Sydney, Australia
Current Conditions -  °F | °C
As of 8:00 PM on Thursday 18 Dec 2014 (Local Time) from YSSY Reporting Station
Few Clouds Few Clouds  
Wind Chill: 75°   Ceiling: Unl
Heat Index: 75°   Visibility: 6mi
Dew Point: 68°   Wind: 14mph
Humidity: 78%   Direction: 40°NE
Pressure: 29.68"   Gusts: NA
Location:  33.87°S, 151.21°E
Report Text: YSSY 180900Z 04012KT 9000 FEW012 24/20 Q1005 NOSIG
Loading
Personal Weather Stations






























Interactive Weather Map New forecast layout! Learn more

10-Day Weather Forecast

Advertisements
Track Severe Weather on mobile